Vburg, Mississippi
Current Conditions -  °F | °C
As of 11:55 PM on Friday 19 Dec 2014 (Local Time) from KVKS Reporting Station
Overcast Overcast  
Wind Chill: 46°   Ceiling: 2800
Heat Index: 46°   Visibility: 9mi
Dew Point: 43°   Wind: 3mph
Humidity: 87%   Direction: 30°NNE
Pressure: 30.18"   Gusts: NA
Location:  32.3524°N, 90.8776°W
Report Text: KVKS 200555Z AUTO 03003KT 9SM BKN028 OVC033 08/06 A3018 RMK A01
Loading
Personal Weather Stations






























Interactive Weather Map New forecast layout! Learn more

10-Day Weather Forecast

Advertisements
Track Severe Weather on mobile